sensor_id;sensor_type;location;lat;lon;timestamp;temperature;humidity
36652;DHT22;53334;51.976;20.144;2022-10-31T00:00:30;26.90;52.00
36652;DHT22;53334;51.976;20.144;2022-10-31T00:03:04;26.80;51.90
36652;DHT22;53334;51.976;20.144;2022-10-31T00:05:41;26.90;51.90
36652;DHT22;53334;51.976;20.144;2022-10-31T00:08:15;26.80;51.90
36652;DHT22;53334;51.976;20.144;2022-10-31T00:10:49;26.80;51.70
36652;DHT22;53334;51.976;20.144;2022-10-31T00:13:23;26.80;51.80
36652;DHT22;53334;51.976;20.144;2022-10-31T00:15:56;26.90;51.50
36652;DHT22;53334;51.976;20.144;2022-10-31T00:18:30;26.90;51.70
36652;DHT22;53334;51.976;20.144;2022-10-31T00:21:05;26.90;51.70
36652;DHT22;53334;51.976;20.144;2022-10-31T00:23:39;26.90;51.80
36652;DHT22;53334;51.976;20.144;2022-10-31T00:26:13;26.90;51.70
36652;DHT22;53334;51.976;20.144;2022-10-31T00:28:47;26.90;51.60
36652;DHT22;53334;51.976;20.144;2022-10-31T00:31:21;26.90;51.80
36652;DHT22;53334;51.976;20.144;2022-10-31T00:33:54;26.90;51.70
36652;DHT22;53334;51.976;20.144;2022-10-31T00:36:32;26.90;51.50
36652;DHT22;53334;51.976;20.144;2022-10-31T00:39:06;26.90;51.60
36652;DHT22;53334;51.976;20.144;2022-10-31T00:41:40;26.90;51.70
36652;DHT22;53334;51.976;20.144;2022-10-31T00:44:16;26.90;51.40
36652;DHT22;53334;51.976;20.144;2022-10-31T00:46:50;26.90;51.40
36652;DHT22;53334;51.976;20.144;2022-10-31T00:49:26;26.90;51.40
36652;DHT22;53334;51.976;20.144;2022-10-31T00:52:01;26.90;51.20
36652;DHT22;53334;51.976;20.144;2022-10-31T00:54:35;26.90;51.50
36652;DHT22;53334;51.976;20.144;2022-10-31T00:57:09;26.90;51.50
36652;DHT22;53334;51.976;20.144;2022-10-31T00:59:42;26.90;51.50
36652;DHT22;53334;51.976;20.144;2022-10-31T01:02:16;26.80;51.40
36652;DHT22;53334;51.976;20.144;2022-10-31T01:04:50;26.80;51.30
36652;DHT22;53334;51.976;20.144;2022-10-31T01:07:26;26.80;52.00
36652;DHT22;53334;51.976;20.144;2022-10-31T01:10:00;26.90;51.40
36652;DHT22;53334;51.976;20.144;2022-10-31T01:12:35;26.80;51.50
36652;DHT22;53334;51.976;20.144;2022-10-31T01:15:09;26.80;51.60
36652;DHT22;53334;51.976;20.144;2022-10-31T01:17:43;26.80;51.70
36652;DHT22;53334;51.976;20.144;2022-10-31T01:20:17;26.80;51.90
36652;DHT22;53334;51.976;20.144;2022-10-31T01:22:52;26.80;52.60
36652;DHT22;53334;51.976;20.144;2022-10-31T01:25:28;26.70;52.30
36652;DHT22;53334;51.976;20.144;2022-10-31T01:28:02;26.80;52.70
36652;DHT22;53334;51.976;20.144;2022-10-31T01:30:36;26.70;52.80
36652;DHT22;53334;51.976;20.144;2022-10-31T01:33:09;26.70;52.90
36652;DHT22;53334;51.976;20.144;2022-10-31T01:35:43;26.80;53.10
36652;DHT22;53334;51.976;20.144;2022-10-31T01:38:18;26.70;53.40
36652;DHT22;53334;51.976;20.144;2022-10-31T01:40:52;26.70;53.70
36652;DHT22;53334;51.976;20.144;2022-10-31T01:43:30;26.70;53.50
36652;DHT22;53334;51.976;20.144;2022-10-31T01:46:15;26.70;53.60
36652;DHT22;53334;51.976;20.144;2022-10-31T01:48:50;26.70;53.70
36652;DHT22;53334;51.976;20.144;2022-10-31T01:51:26;26.70;53.90
36652;DHT22;53334;51.976;20.144;2022-10-31T01:54:03;26.70;54.10
36652;DHT22;53334;51.976;20.144;2022-10-31T01:56:38;26.70;54.20
36652;DHT22;53334;51.976;20.144;2022-10-31T01:59:12;26.70;54.40
36652;DHT22;53334;51.976;20.144;2022-10-31T02:01:47;26.70;54.70
36652;DHT22;53334;51.976;20.144;2022-10-31T02:04:21;26.70;54.70
36652;DHT22;53334;51.976;20.144;2022-10-31T02:06:58;26.70;54.90
36652;DHT22;53334;51.976;20.144;2022-10-31T02:09:35;26.70;55.20
36652;DHT22;53334;51.976;20.144;2022-10-31T02:12:10;26.70;55.30
36652;DHT22;53334;51.976;20.144;2022-10-31T02:14:44;26.70;55.50
36652;DHT22;53334;51.976;20.144;2022-10-31T02:17:17;26.70;55.70
36652;DHT22;53334;51.976;20.144;2022-10-31T02:19:51;26.70;55.80
36652;DHT22;53334;51.976;20.144;2022-10-31T02:22:29;26.70;55.90
36652;DHT22;53334;51.976;20.144;2022-10-31T02:25:12;26.70;56.00
36652;DHT22;53334;51.976;20.144;2022-10-31T02:27:57;26.70;56.10
36652;DHT22;53334;51.976;20.144;2022-10-31T02:30:37;26.70;56.20
36652;DHT22;53334;51.976;20.144;2022-10-31T02:33:18;26.70;56.40
36652;DHT22;53334;51.976;20.144;2022-10-31T02:35:55;26.70;56.40
36652;DHT22;53334;51.976;20.144;2022-10-31T02:38:34;26.70;56.50
36652;DHT22;53334;51.976;20.144;2022-10-31T02:41:11;26.70;56.40
36652;DHT22;53334;51.976;20.144;2022-10-31T02:43:55;26.70;56.60
36652;DHT22;53334;51.976;20.144;2022-10-31T02:46:33;26.70;56.70
36652;DHT22;53334;51.976;20.144;2022-10-31T02:49:11;26.60;56.70
36652;DHT22;53334;51.976;20.144;2022-10-31T02:51:49;26.60;56.80
36652;DHT22;53334;51.976;20.144;2022-10-31T02:54:24;26.70;57.00
36652;DHT22;53334;51.976;20.144;2022-10-31T02:56:58;26.70;57.20
36652;DHT22;53334;51.976;20.144;2022-10-31T02:59:34;26.70;57.30
36652;DHT22;53334;51.976;20.144;2022-10-31T03:02:14;26.70;57.50
36652;DHT22;53334;51.976;20.144;2022-10-31T03:07:47;26.60;57.50
36652;DHT22;53334;51.976;20.144;2022-10-31T03:10:24;26.70;57.60
36652;DHT22;53334;51.976;20.144;2022-10-31T03:13:01;26.70;57.70
36652;DHT22;53334;51.976;20.144;2022-10-31T03:15:37;26.70;57.80
36652;DHT22;53334;51.976;20.144;2022-10-31T03:18:12;26.70;57.80
36652;DHT22;53334;51.976;20.144;2022-10-31T03:20:50;26.60;57.90
36652;DHT22;53334;51.976;20.144;2022-10-31T03:23:28;26.70;57.90
36652;DHT22;53334;51.976;20.144;2022-10-31T03:26:02;26.70;57.90
36652;DHT22;53334;51.976;20.144;2022-10-31T03:28:37;26.70;58.10
36652;DHT22;53334;51.976;20.144;2022-10-31T03:31:13;26.60;58.10
36652;DHT22;53334;51.976;20.144;2022-10-31T03:33:50;26.60;58.00
36652;DHT22;53334;51.976;20.144;2022-10-31T03:36:25;26.70;58.20
36652;DHT22;53334;51.976;20.144;2022-10-31T03:39:01;26.70;58.20
36652;DHT22;53334;51.976;20.144;2022-10-31T03:41:37;26.70;58.30
36652;DHT22;53334;51.976;20.144;2022-10-31T03:44:13;26.60;58.30
36652;DHT22;53334;51.976;20.144;2022-10-31T03:46:51;26.70;58.60
36652;DHT22;53334;51.976;20.144;2022-10-31T03:49:25;26.60;58.60
36652;DHT22;53334;51.976;20.144;2022-10-31T03:52:02;26.70;58.60
36652;DHT22;53334;51.976;20.144;2022-10-31T03:54:40;26.70;58.70
36652;DHT22;53334;51.976;20.144;2022-10-31T03:57:16;26.70;58.70
36652;DHT22;53334;51.976;20.144;2022-10-31T03:59:53;26.70;58.80
36652;DHT22;53334;51.976;20.144;2022-10-31T04:02:29;26.70;58.80
36652;DHT22;53334;51.976;20.144;2022-10-31T04:05:05;26.60;58.80
36652;DHT22;53334;51.976;20.144;2022-10-31T04:07:40;26.60;58.90
36652;DHT22;53334;51.976;20.144;2022-10-31T04:10:16;26.60;58.90
36652;DHT22;53334;51.976;20.144;2022-10-31T04:12:51;26.60;59.00
36652;DHT22;53334;51.976;20.144;2022-10-31T04:15:30;26.70;59.10
36652;DHT22;53334;51.976;20.144;2022-10-31T04:18:04;26.70;59.20
36652;DHT22;53334;51.976;20.144;2022-10-31T04:20:41;26.60;59.10
36652;DHT22;53334;51.976;20.144;2022-10-31T04:23:17;26.60;59.10
36652;DHT22;53334;51.976;20.144;2022-10-31T04:25:54;26.60;59.10
36652;DHT22;53334;51.976;20.144;2022-10-31T04:28:28;26.60;59.30
36652;DHT22;53334;51.976;20.144;2022-10-31T04:31:02;26.60;59.40
36652;DHT22;53334;51.976;20.144;2022-10-31T04:33:39;26.60;59.40
36652;DHT22;53334;51.976;20.144;2022-10-31T04:36:12;26.70;59.50
36652;DHT22;53334;51.976;20.144;2022-10-31T04:38:47;26.60;59.50
36652;DHT22;53334;51.976;20.144;2022-10-31T04:41:36;26.60;59.50
36652;DHT22;53334;51.976;20.144;2022-10-31T04:44:18;26.60;59.50
36652;DHT22;53334;51.976;20.144;2022-10-31T04:46:55;26.60;59.50
36652;DHT22;53334;51.976;20.144;2022-10-31T04:49:29;26.60;59.60
36652;DHT22;53334;51.976;20.144;2022-10-31T04:52:03;26.70;59.60
36652;DHT22;53334;51.976;20.144;2022-10-31T04:54:37;26.60;59.60
36652;DHT22;53334;51.976;20.144;2022-10-31T04:57:30;26.60;59.70
36652;DHT22;53334;51.976;20.144;2022-10-31T05:00:07;26.70;59.80
36652;DHT22;53334;51.976;20.144;2022-10-31T05:02:44;26.70;59.80
36652;DHT22;53334;51.976;20.144;2022-10-31T05:05:18;26.60;59.70
36652;DHT22;53334;51.976;20.144;2022-10-31T05:07:53;26.70;59.60
36652;DHT22;53334;51.976;20.144;2022-10-31T05:10:29;26.70;59.60
36652;DHT22;53334;51.976;20.144;2022-10-31T05:13:06;26.70;59.60
36652;DHT22;53334;51.976;20.144;2022-10-31T05:15:54;26.70;59.60
36652;DHT22;53334;51.976;20.144;2022-10-31T05:18:34;26.70;59.60
36652;DHT22;53334;51.976;20.144;2022-10-31T05:21:26;26.70;59.60
36652;DHT22;53334;51.976;20.144;2022-10-31T05:24:04;26.70;59.50
36652;DHT22;53334;51.976;20.144;2022-10-31T05:26:39;26.70;59.60
36652;DHT22;53334;51.976;20.144;2022-10-31T05:29:15;26.70;59.60
36652;DHT22;53334;51.976;20.144;2022-10-31T05:31:49;26.70;59.80
36652;DHT22;53334;51.976;20.144;2022-10-31T05:34:49;26.70;59.70
36652;DHT22;53334;51.976;20.144;2022-10-31T05:37:48;26.70;59.60
36652;DHT22;53334;51.976;20.144;2022-10-31T05:40:22;26.70;59.60
36652;DHT22;53334;51.976;20.144;2022-10-31T05:42:57;26.70;59.50
36652;DHT22;53334;51.976;20.144;2022-10-31T05:45:33;26.70;59.50
36652;DHT22;53334;51.976;20.144;2022-10-31T05:48:11;26.70;59.40
36652;DHT22;53334;51.976;20.144;2022-10-31T05:51:03;26.70;59.40
36652;DHT22;53334;51.976;20.144;2022-10-31T05:53:37;26.70;59.20
36652;DHT22;53334;51.976;20.144;2022-10-31T05:56:11;26.70;58.90
36652;DHT22;53334;51.976;20.144;2022-10-31T05:58:45;26.70;58.90
36652;DHT22;53334;51.976;20.144;2022-10-31T06:01:20;26.70;58.80
36652;DHT22;53334;51.976;20.144;2022-10-31T06:03:54;26.70;58.80
36652;DHT22;53334;51.976;20.144;2022-10-31T06:06:28;26.70;52.00
36652;DHT22;53334;51.976;20.144;2022-10-31T06:09:02;26.60;48.70
36652;DHT22;53334;51.976;20.144;2022-10-31T06:11:41;26.60;46.90
36652;DHT22;53334;51.976;20.144;2022-10-31T06:14:44;26.60;48.90
36652;DHT22;53334;51.976;20.144;2022-10-31T06:17:19;26.50;50.00
36652;DHT22;53334;51.976;20.144;2022-10-31T06:20:13;26.50;50.30
36652;DHT22;53334;51.976;20.144;2022-10-31T06:22:57;26.50;51.00
36652;DHT22;53334;51.976;20.144;2022-10-31T06:25:32;26.40;51.10
36652;DHT22;53334;51.976;20.144;2022-10-31T06:28:08;26.50;51.40
36652;DHT22;53334;51.976;20.144;2022-10-31T06:30:56;26.50;51.30
36652;DHT22;53334;51.976;20.144;2022-10-31T06:33:32;26.40;51.30
36652;DHT22;53334;51.976;20.144;2022-10-31T06:36:06;26.40;51.60
36652;DHT22;53334;51.976;20.144;2022-10-31T06:38:41;26.40;51.60
36652;DHT22;53334;51.976;20.144;2022-10-31T06:41:15;26.50;51.60
36652;DHT22;53334;51.976;20.144;2022-10-31T06:43:52;26.40;51.70
36652;DHT22;53334;51.976;20.144;2022-10-31T06:47:01;26.40;51.60
36652;DHT22;53334;51.976;20.144;2022-10-31T06:49:55;26.40;51.70
36652;DHT22;53334;51.976;20.144;2022-10-31T06:52:30;26.40;51.80
36652;DHT22;53334;51.976;20.144;2022-10-31T06:55:04;26.50;52.20
36652;DHT22;53334;51.976;20.144;2022-10-31T06:57:38;26.50;52.10
36652;DHT22;53334;51.976;20.144;2022-10-31T07:00:12;26.50;51.90
36652;DHT22;53334;51.976;20.144;2022-10-31T07:02:58;26.50;52.20
36652;DHT22;53334;51.976;20.144;2022-10-31T07:05:33;26.50;52.10
36652;DHT22;53334;51.976;20.144;2022-10-31T07:08:08;26.50;52.10
36652;DHT22;53334;51.976;20.144;2022-10-31T07:10:42;26.50;52.20
36652;DHT22;53334;51.976;20.144;2022-10-31T07:13:17;26.50;52.10
36652;DHT22;53334;51.976;20.144;2022-10-31T07:15:59;26.50;52.30
36652;DHT22;53334;51.976;20.144;2022-10-31T07:18:33;26.50;52.20
36652;DHT22;53334;51.976;20.144;2022-10-31T07:21:08;26.50;52.10
36652;DHT22;53334;51.976;20.144;2022-10-31T07:23:42;26.50;52.10
36652;DHT22;53334;51.976;20.144;2022-10-31T07:26:35;26.50;51.90
36652;DHT22;53334;51.976;20.144;2022-10-31T07:29:09;26.50;52.40
36652;DHT22;53334;51.976;20.144;2022-10-31T07:31:45;26.50;51.90
36652;DHT22;53334;51.976;20.144;2022-10-31T07:34:25;26.50;51.80
36652;DHT22;53334;51.976;20.144;2022-10-31T07:37:23;26.50;51.70
36652;DHT22;53334;51.976;20.144;2022-10-31T07:40:02;26.50;51.80
36652;DHT22;53334;51.976;20.144;2022-10-31T07:42:37;26.40;51.60
36652;DHT22;53334;51.976;20.144;2022-10-31T07:45:16;26.50;51.80
36652;DHT22;53334;51.976;20.144;2022-10-31T07:48:09;26.40;51.70
36652;DHT22;53334;51.976;20.144;2022-10-31T07:51:01;26.50;51.90
36652;DHT22;53334;51.976;20.144;2022-10-31T07:54:05;26.40;51.90
36652;DHT22;53334;51.976;20.144;2022-10-31T07:56:39;26.50;51.90
36652;DHT22;53334;51.976;20.144;2022-10-31T07:59:13;26.50;51.90
36652;DHT22;53334;51.976;20.144;2022-10-31T08:01:47;26.50;52.10
36652;DHT22;53334;51.976;20.144;2022-10-31T08:04:41;26.40;52.00
36652;DHT22;53334;51.976;20.144;2022-10-31T08:07:51;26.40;52.10
36652;DHT22;53334;51.976;20.144;2022-10-31T08:10:27;26.40;52.30
36652;DHT22;53334;51.976;20.144;2022-10-31T08:13:02;26.40;52.50
36652;DHT22;53334;51.976;20.144;2022-10-31T08:15:37;26.50;52.60
36652;DHT22;53334;51.976;20.144;2022-10-31T08:18:13;26.50;52.60
36652;DHT22;53334;51.976;20.144;2022-10-31T08:20:47;26.50;52.80
36652;DHT22;53334;51.976;20.144;2022-10-31T08:23:22;26.50;52.80
36652;DHT22;53334;51.976;20.144;2022-10-31T08:25:59;26.50;52.80
36652;DHT22;53334;51.976;20.144;2022-10-31T08:28:34;26.50;52.60
36652;DHT22;53334;51.976;20.144;2022-10-31T08:31:08;26.50;52.50
36652;DHT22;53334;51.976;20.144;2022-10-31T08:33:44;26.50;52.90
36652;DHT22;53334;51.976;20.144;2022-10-31T08:36:37;26.50;53.00
36652;DHT22;53334;51.976;20.144;2022-10-31T08:39:17;26.50;53.10
36652;DHT22;53334;51.976;20.144;2022-10-31T08:41:52;26.50;53.20
36652;DHT22;53334;51.976;20.144;2022-10-31T08:44:26;26.50;53.10
36652;DHT22;53334;51.976;20.144;2022-10-31T08:47:01;26.50;53.00
36652;DHT22;53334;51.976;20.144;2022-10-31T08:49:37;26.50;52.90
36652;DHT22;53334;51.976;20.144;2022-10-31T08:52:11;26.60;52.90
36652;DHT22;53334;51.976;20.144;2022-10-31T08:54:48;26.50;53.10
36652;DHT22;53334;51.976;20.144;2022-10-31T08:57:43;26.60;53.10
36652;DHT22;53334;51.976;20.144;2022-10-31T09:00:17;26.60;53.20
36652;DHT22;53334;51.976;20.144;2022-10-31T09:02:54;26.60;53.40
36652;DHT22;53334;51.976;20.144;2022-10-31T09:05:28;26.50;53.20
36652;DHT22;53334;51.976;20.144;2022-10-31T09:08:03;26.60;53.40
36652;DHT22;53334;51.976;20.144;2022-10-31T09:10:40;26.60;53.40
36652;DHT22;53334;51.976;20.144;2022-10-31T09:13:16;26.60;53.40
36652;DHT22;53334;51.976;20.144;2022-10-31T09:16:25;26.60;53.40
36652;DHT22;53334;51.976;20.144;2022-10-31T09:18:59;26.60;53.80
36652;DHT22;53334;51.976;20.144;2022-10-31T09:21:36;26.60;54.00
36652;DHT22;53334;51.976;20.144;2022-10-31T09:24:09;26.60;54.00
36652;DHT22;53334;51.976;20.144;2022-10-31T09:26:47;26.60;54.00
36652;DHT22;53334;51.976;20.144;2022-10-31T09:29:32;26.60;54.00
36652;DHT22;53334;51.976;20.144;2022-10-31T09:32:09;26.60;53.80
36652;DHT22;53334;51.976;20.144;2022-10-31T09:34:49;26.60;54.00
36652;DHT22;53334;51.976;20.144;2022-10-31T09:37:25;26.60;54.20
36652;DHT22;53334;51.976;20.144;2022-10-31T09:39:59;26.60;54.40
36652;DHT22;53334;51.976;20.144;2022-10-31T09:42:45;26.60;54.60
36652;DHT22;53334;51.976;20.144;2022-10-31T09:45:29;26.70;54.90
36652;DHT22;53334;51.976;20.144;2022-10-31T09:48:16;26.70;55.00
36652;DHT22;53334;51.976;20.144;2022-10-31T09:51:23;26.70;55.00
36652;DHT22;53334;51.976;20.144;2022-10-31T09:54:06;26.70;55.70
36652;DHT22;53334;51.976;20.144;2022-10-31T09:56:42;26.70;55.10
36652;DHT22;53334;51.976;20.144;2022-10-31T09:59:19;26.70;55.00
36652;DHT22;53334;51.976;20.144;2022-10-31T10:01:56;26.70;55.00
36652;DHT22;53334;51.976;20.144;2022-10-31T10:04:33;26.70;55.10
36652;DHT22;53334;51.976;20.144;2022-10-31T10:07:27;26.70;55.00
36652;DHT22;53334;51.976;20.144;2022-10-31T10:10:24;26.70;55.00
36652;DHT22;53334;51.976;20.144;2022-10-31T10:13:32;26.70;54.90
36652;DHT22;53334;51.976;20.144;2022-10-31T10:16:20;26.70;54.70
36652;DHT22;53334;51.976;20.144;2022-10-31T10:19:00;26.70;54.80
36652;DHT22;53334;51.976;20.144;2022-10-31T10:21:38;26.70;54.80
36652;DHT22;53334;51.976;20.144;2022-10-31T10:24:20;26.70;54.70
36652;DHT22;53334;51.976;20.144;2022-10-31T10:26:59;26.70;54.70
36652;DHT22;53334;51.976;20.144;2022-10-31T10:29:39;26.70;54.70
36652;DHT22;53334;51.976;20.144;2022-10-31T10:32:17;26.70;54.70
36652;DHT22;53334;51.976;20.144;2022-10-31T10:34:54;26.70;54.50
36652;DHT22;53334;51.976;20.144;2022-10-31T10:37:31;26.70;54.40
36652;DHT22;53334;51.976;20.144;2022-10-31T10:40:06;26.70;54.30
36652;DHT22;53334;51.976;20.144;2022-10-31T10:42:41;26.70;54.00
36652;DHT22;53334;51.976;20.144;2022-10-31T10:45:34;26.70;53.90
36652;DHT22;53334;51.976;20.144;2022-10-31T10:48:30;26.70;54.00
36652;DHT22;53334;51.976;20.144;2022-10-31T10:51:06;26.70;53.60
36652;DHT22;53334;51.976;20.144;2022-10-31T10:54:08;26.70;53.20
36652;DHT22;53334;51.976;20.144;2022-10-31T10:56:49;26.70;53.10
36652;DHT22;53334;51.976;20.144;2022-10-31T10:59:24;26.70;53.10
36652;DHT22;53334;51.976;20.144;2022-10-31T11:01:58;26.70;53.30
36652;DHT22;53334;51.976;20.144;2022-10-31T11:04:32;26.70;53.30
36652;DHT22;53334;51.976;20.144;2022-10-31T11:07:09;26.60;53.30
36652;DHT22;53334;51.976;20.144;2022-10-31T11:09:43;26.70;53.50
36652;DHT22;53334;51.976;20.144;2022-10-31T11:12:19;26.60;53.40
36652;DHT22;53334;51.976;20.144;2022-10-31T11:14:54;26.60;53.40
36652;DHT22;53334;51.976;20.144;2022-10-31T11:17:33;26.60;53.40
36652;DHT22;53334;51.976;20.144;2022-10-31T11:20:23;26.60;53.70
36652;DHT22;53334;51.976;20.144;2022-10-31T11:23:03;26.60;54.00
36652;DHT22;53334;51.976;20.144;2022-10-31T11:25:37;26.60;53.90
36652;DHT22;53334;51.976;20.144;2022-10-31T11:28:11;26.60;53.80
36652;DHT22;53334;51.976;20.144;2022-10-31T11:30:45;26.60;53.90
36652;DHT22;53334;51.976;20.144;2022-10-31T11:33:20;26.60;53.90
36652;DHT22;53334;51.976;20.144;2022-10-31T11:35:55;26.60;54.00
36652;DHT22;53334;51.976;20.144;2022-10-31T11:38:33;26.60;54.00
36652;DHT22;53334;51.976;20.144;2022-10-31T11:41:10;26.60;54.00
36652;DHT22;53334;51.976;20.144;2022-10-31T11:43:48;26.60;54.00
36652;DHT22;53334;51.976;20.144;2022-10-31T11:46:24;26.60;54.00
36652;DHT22;53334;51.976;20.144;2022-10-31T11:49:01;26.60;53.90
36652;DHT22;53334;51.976;20.144;2022-10-31T11:51:34;26.60;53.80
36652;DHT22;53334;51.976;20.144;2022-10-31T11:54:18;26.60;53.80
36652;DHT22;53334;51.976;20.144;2022-10-31T11:56:52;26.60;53.70
36652;DHT22;53334;51.976;20.144;2022-10-31T11:59:26;26.60;53.70
36652;DHT22;53334;51.976;20.144;2022-10-31T12:02:00;26.60;53.80
36652;DHT22;53334;51.976;20.144;2022-10-31T12:04:37;26.60;53.80
36652;DHT22;53334;51.976;20.144;2022-10-31T12:07:12;26.60;53.60
36652;DHT22;53334;51.976;20.144;2022-10-31T12:09:47;26.60;53.50
36652;DHT22;53334;51.976;20.144;2022-10-31T12:12:34;26.60;53.50
36652;DHT22;53334;51.976;20.144;2022-10-31T12:15:29;26.60;53.70
36652;DHT22;53334;51.976;20.144;2022-10-31T12:18:21;26.60;53.70
36652;DHT22;53334;51.976;20.144;2022-10-31T12:21:00;26.60;53.90
36652;DHT22;53334;51.976;20.144;2022-10-31T12:23:41;26.60;54.30
36652;DHT22;53334;51.976;20.144;2022-10-31T12:26:21;26.60;54.50
36652;DHT22;53334;51.976;20.144;2022-10-31T12:29:00;26.60;56.20
36652;DHT22;53334;51.976;20.144;2022-10-31T12:31:41;26.60;57.50
36652;DHT22;53334;51.976;20.144;2022-10-31T12:34:38;26.70;57.60
36652;DHT22;53334;51.976;20.144;2022-10-31T12:37:24;26.70;57.40
36652;DHT22;53334;51.976;20.144;2022-10-31T12:40:02;26.70;57.10
36652;DHT22;53334;51.976;20.144;2022-10-31T12:42:42;26.70;57.00
36652;DHT22;53334;51.976;20.144;2022-10-31T12:45:30;26.70;56.60
36652;DHT22;53334;51.976;20.144;2022-10-31T12:48:10;26.70;56.50
36652;DHT22;53334;51.976;20.144;2022-10-31T12:50:50;26.70;56.10
36652;DHT22;53334;51.976;20.144;2022-10-31T12:53:29;26.70;56.90
36652;DHT22;53334;51.976;20.144;2022-10-31T12:56:09;26.70;56.20
36652;DHT22;53334;51.976;20.144;2022-10-31T12:58:50;26.70;56.40
36652;DHT22;53334;51.976;20.144;2022-10-31T13:01:27;26.70;55.60
36652;DHT22;53334;51.976;20.144;2022-10-31T13:04:04;26.70;55.40
36652;DHT22;53334;51.976;20.144;2022-10-31T13:06:39;26.60;55.20
36652;DHT22;53334;51.976;20.144;2022-10-31T13:09:17;26.60;55.30
36652;DHT22;53334;51.976;20.144;2022-10-31T13:11:51;26.60;55.20
36652;DHT22;53334;51.976;20.144;2022-10-31T13:14:29;26.60;54.90
36652;DHT22;53334;51.976;20.144;2022-10-31T13:17:05;26.60;54.70
36652;DHT22;53334;51.976;20.144;2022-10-31T13:19:41;26.60;55.10
36652;DHT22;53334;51.976;20.144;2022-10-31T13:22:17;26.60;55.10
36652;DHT22;53334;51.976;20.144;2022-10-31T13:24:53;26.60;55.30
36652;DHT22;53334;51.976;20.144;2022-10-31T13:27:29;26.60;55.10
36652;DHT22;53334;51.976;20.144;2022-10-31T13:30:06;26.60;54.90
36652;DHT22;53334;51.976;20.144;2022-10-31T13:32:47;26.60;55.20
36652;DHT22;53334;51.976;20.144;2022-10-31T13:35:24;26.60;55.10
36652;DHT22;53334;51.976;20.144;2022-10-31T13:38:03;26.60;55.00
36652;DHT22;53334;51.976;20.144;2022-10-31T13:40:42;26.60;55.00
36652;DHT22;53334;51.976;20.144;2022-10-31T13:43:21;26.60;54.80
36652;DHT22;53334;51.976;20.144;2022-10-31T13:45:58;26.60;54.50
36652;DHT22;53334;51.976;20.144;2022-10-31T13:48:39;26.50;54.40
36652;DHT22;53334;51.976;20.144;2022-10-31T13:51:23;26.60;54.30
36652;DHT22;53334;51.976;20.144;2022-10-31T13:53:58;26.50;54.30
36652;DHT22;53334;51.976;20.144;2022-10-31T13:56:32;26.50;54.10
36652;DHT22;53334;51.976;20.144;2022-10-31T13:59:17;26.50;54.10
36652;DHT22;53334;51.976;20.144;2022-10-31T14:01:55;26.50;54.10
36652;DHT22;53334;51.976;20.144;2022-10-31T14:04:31;26.50;54.00
36652;DHT22;53334;51.976;20.144;2022-10-31T14:07:06;26.50;54.00
36652;DHT22;53334;51.976;20.144;2022-10-31T14:09:51;26.50;53.90
36652;DHT22;53334;51.976;20.144;2022-10-31T14:12:27;26.50;53.90
36652;DHT22;53334;51.976;20.144;2022-10-31T14:15:03;26.50;53.90
36652;DHT22;53334;51.976;20.144;2022-10-31T14:17:45;26.40;53.80
36652;DHT22;53334;51.976;20.144;2022-10-31T14:20:33;26.40;54.00
36652;DHT22;53334;51.976;20.144;2022-10-31T14:23:11;26.50;54.10
36652;DHT22;53334;51.976;20.144;2022-10-31T14:25:45;26.50;54.40
36652;DHT22;53334;51.976;20.144;2022-10-31T14:28:19;26.50;54.40
36652;DHT22;53334;51.976;20.144;2022-10-31T14:30:54;26.50;54.40
36652;DHT22;53334;51.976;20.144;2022-10-31T14:33:29;26.50;54.60
36652;DHT22;53334;51.976;20.144;2022-10-31T14:36:04;26.50;54.60
36652;DHT22;53334;51.976;20.144;2022-10-31T14:38:48;26.50;54.60
36652;DHT22;53334;51.976;20.144;2022-10-31T14:41:37;26.50;54.50
36652;DHT22;53334;51.976;20.144;2022-10-31T14:44:30;26.50;54.30
36652;DHT22;53334;51.976;20.144;2022-10-31T14:47:13;26.60;54.30
36652;DHT22;53334;51.976;20.144;2022-10-31T14:49:56;26.60;54.30
36652;DHT22;53334;51.976;20.144;2022-10-31T14:52:35;26.60;54.30
36652;DHT22;53334;51.976;20.144;2022-10-31T14:55:10;26.60;54.50
36652;DHT22;53334;51.976;20.144;2022-10-31T14:57:50;26.60;54.50
36652;DHT22;53334;51.976;20.144;2022-10-31T15:00:25;26.60;54.50
36652;DHT22;53334;51.976;20.144;2022-10-31T15:03:04;26.60;54.00
36652;DHT22;53334;51.976;20.144;2022-10-31T15:05:44;26.60;54.20
36652;DHT22;53334;51.976;20.144;2022-10-31T15:08:26;26.60;54.40
36652;DHT22;53334;51.976;20.144;2022-10-31T15:11:09;26.60;54.60
36652;DHT22;53334;51.976;20.144;2022-10-31T15:13:44;26.60;54.70
36652;DHT22;53334;51.976;20.144;2022-10-31T15:16:19;26.60;54.80
36652;DHT22;53334;51.976;20.144;2022-10-31T15:18:54;26.60;54.90
36652;DHT22;53334;51.976;20.144;2022-10-31T15:21:31;26.60;54.90
36652;DHT22;53334;51.976;20.144;2022-10-31T15:24:05;26.60;54.90
36652;DHT22;53334;51.976;20.144;2022-10-31T15:26:39;26.60;55.10
36652;DHT22;53334;51.976;20.144;2022-10-31T15:29:14;26.60;55.20
36652;DHT22;53334;51.976;20.144;2022-10-31T15:31:49;26.60;55.30
36652;DHT22;53334;51.976;20.144;2022-10-31T15:34:25;26.60;55.10
36652;DHT22;53334;51.976;20.144;2022-10-31T15:37:02;26.60;55.40
36652;DHT22;53334;51.976;20.144;2022-10-31T15:39:36;26.60;55.50
36652;DHT22;53334;51.976;20.144;2022-10-31T15:42:14;26.60;55.60
36652;DHT22;53334;51.976;20.144;2022-10-31T15:44:51;26.60;55.70
36652;DHT22;53334;51.976;20.144;2022-10-31T15:47:26;26.70;55.90
36652;DHT22;53334;51.976;20.144;2022-10-31T15:50:02;26.70;55.80
36652;DHT22;53334;51.976;20.144;2022-10-31T15:52:39;26.60;55.70
36652;DHT22;53334;51.976;20.144;2022-10-31T15:55:19;26.70;55.80
36652;DHT22;53334;51.976;20.144;2022-10-31T15:57:55;26.60;55.70
36652;DHT22;53334;51.976;20.144;2022-10-31T16:00:29;26.70;56.10
36652;DHT22;53334;51.976;20.144;2022-10-31T16:03:04;26.70;56.40
36652;DHT22;53334;51.976;20.144;2022-10-31T16:05:39;26.70;56.80
36652;DHT22;53334;51.976;20.144;2022-10-31T16:08:25;26.60;57.00
36652;DHT22;53334;51.976;20.144;2022-10-31T16:10:59;26.70;57.10
36652;DHT22;53334;51.976;20.144;2022-10-31T16:13:35;26.70;56.90
36652;DHT22;53334;51.976;20.144;2022-10-31T16:16:11;26.60;56.50
36652;DHT22;53334;51.976;20.144;2022-10-31T16:19:05;26.60;56.20
36652;DHT22;53334;51.976;20.144;2022-10-31T16:21:46;26.60;56.10
36652;DHT22;53334;51.976;20.144;2022-10-31T16:24:22;26.70;56.00
36652;DHT22;53334;51.976;20.144;2022-10-31T16:26:59;26.70;56.40